Time;durP1;ratioP1;P1;durP2;ratioP2;P2;SDS_P1;SDS_P2;PMS_P1;PMS_P2;Temp;Humidity;BMP_temperature;BMP_pressure;BME280_temperature;BME280_humidity;BME280_pressure;Samples;Min_cycle;Max_cycle;Signal;HPM_P1;HPM_P2
2023/03/21 00:00:33;;;;;;;6.57;3.25;;;11.60;99.90;;;;;;5083237;28;20489;-86
2023/03/21 00:02:59;;;;;;;4.88;3.13;;;11.60;99.90;;;;;;5095806;28;20029;-87
2023/03/21 00:05:25;;;;;;;4.50;2.92;;;11.50;99.90;;;;;;5081802;28;20018;-89
2023/03/21 00:07:50;;;;;;;7.65;3.25;;;11.50;99.90;;;;;;5088670;28;20272;-89
2023/03/21 00:10:16;;;;;;;5.13;3.20;;;11.50;99.90;;;;;;5081701;28;20461;-86
2023/03/21 00:12:42;;;;;;;5.32;3.10;;;11.50;99.90;;;;;;5081433;28;20025;-85
2023/03/21 00:15:10;;;;;;;6.18;3.35;;;11.50;99.90;;;;;;5093577;28;20036;-82
2023/03/21 00:17:38;;;;;;;6.68;3.58;;;11.50;99.90;;;;;;5088590;28;20024;-85
2023/03/21 00:20:06;;;;;;;6.18;3.10;;;11.50;99.90;;;;;;5084262;28;20024;-87
2023/03/21 00:22:36;;;;;;;5.50;3.20;;;11.40;99.90;;;;;;5079329;28;20033;-84
2023/03/21 00:25:01;;;;;;;9.40;3.53;;;11.40;99.90;;;;;;5090262;28;20024;-84
2023/03/21 00:27:27;;;;;;;7.13;3.40;;;11.40;99.90;;;;;;5078562;28;20020;-84
2023/03/21 00:29:53;;;;;;;8.48;3.90;;;11.40;99.90;;;;;;5083931;28;20020;-84
2023/03/21 00:32:20;;;;;;;5.65;3.40;;;11.40;99.90;;;;;;5085221;28;20032;-84
2023/03/21 00:34:46;;;;;;;5.35;3.13;;;11.40;99.90;;;;;;5077110;28;20033;-83
2023/03/21 00:37:15;;;;;;;6.80;3.50;;;11.40;99.90;;;;;;5090040;28;20052;-83
2023/03/21 00:39:42;;;;;;;6.13;3.70;;;11.40;99.90;;;;;;5078889;28;20440;-83
2023/03/21 00:42:08;;;;;;;6.93;3.35;;;11.30;99.90;;;;;;5082124;28;20111;-81
2023/03/21 00:44:35;;;;;;;4.95;3.20;;;11.30;99.90;;;;;;5087924;28;20031;-84
2023/03/21 00:47:05;;;;;;;8.40;3.22;;;11.40;99.90;;;;;;5087497;28;20033;-83
2023/03/21 00:49:32;;;;;;;5.28;3.03;;;11.40;99.90;;;;;;5076285;28;20052;-85
2023/03/21 00:51:59;;;;;;;6.50;3.35;;;11.30;99.90;;;;;;5077659;28;20086;-82
2023/03/21 00:54:25;;;;;;;6.18;3.28;;;11.30;99.90;;;;;;5083405;28;20043;-84
2023/03/21 00:56:51;;;;;;;6.45;3.22;;;11.30;99.90;;;;;;5076304;28;20050;-86
2023/03/21 00:59:17;;;;;;;5.30;3.40;;;11.20;99.90;;;;;;5076257;28;20016;-85
2023/03/21 01:01:45;;;;;;;10.68;4.00;;;11.20;99.90;;;;;;5084272;28;20089;-83
2023/03/21 01:04:13;;;;;;;6.15;3.65;;;11.10;99.90;;;;;;5073749;28;20115;-84
2023/03/21 01:06:41;;;;;;;6.97;3.38;;;11.10;99.90;;;;;;5074697;28;20020;-84
2023/03/21 01:09:18;;;;;;;5.43;3.58;;;11.00;99.90;;;;;;5093646;28;20020;-83
2023/03/21 01:11:44;;;;;;;6.13;3.50;;;11.00;99.90;;;;;;5093029;28;20097;-82
2023/03/21 01:14:11;;;;;;;6.05;3.40;;;11.00;99.90;;;;;;5093557;28;20082;-83
2023/03/21 01:16:37;;;;;;;5.68;3.05;;;11.00;99.90;;;;;;5093025;28;20157;-84
2023/03/21 01:19:04;;;;;;;6.40;3.42;;;11.00;99.90;;;;;;5094816;28;20067;-83
2023/03/21 01:21:30;;;;;;;5.53;3.42;;;11.00;99.90;;;;;;5094481;28;20109;-83
2023/03/21 01:23:56;;;;;;;5.43;2.97;;;10.90;99.90;;;;;;5093254;28;20028;-83
2023/03/21 01:26:21;;;;;;;4.85;3.15;;;10.80;99.90;;;;;;5099342;28;20091;-83
2023/03/21 01:28:47;;;;;;;6.75;3.38;;;10.80;99.90;;;;;;5094306;28;20028;-83
2023/03/21 01:31:15;;;;;;;6.65;3.80;;;10.80;99.90;;;;;;5094626;28;20016;-83
2023/03/21 01:33:41;;;;;;;6.88;3.17;;;10.80;99.90;;;;;;5092794;28;20095;-84
2023/03/21 01:36:12;;;;;;;6.68;2.95;;;10.70;99.90;;;;;;5094326;28;20020;-83
2023/03/21 01:38:39;;;;;;;5.85;3.40;;;10.70;99.90;;;;;;5087680;28;20037;-84
2023/03/21 01:41:05;;;;;;;6.72;3.40;;;10.60;99.90;;;;;;5073216;28;20027;-84
2023/03/21 01:43:33;;;;;;;8.50;3.75;;;10.60;99.90;;;;;;5074404;28;20029;-86
2023/03/21 01:46:22;;;;;;;7.65;3.63;;;10.60;99.90;;;;;;5073863;28;20021;-85
2023/03/21 01:48:57;;;;;;;5.93;3.20;;;10.50;99.90;;;;;;5074527;28;20081;-87
2023/03/21 01:51:26;;;;;;;5.60;3.47;;;10.60;99.90;;;;;;5093656;28;20024;-87
2023/03/21 01:53:52;;;;;;;7.47;3.90;;;10.60;99.90;;;;;;5092774;28;20031;-88
2023/03/21 01:56:31;;;;;;;8.35;3.72;;;10.50;99.90;;;;;;5093398;28;20024;-86
2023/03/21 01:59:04;;;;;;;5.38;3.60;;;10.60;99.90;;;;;;5093038;28;20024;-87
2023/03/21 02:01:33;;;;;;;8.82;3.58;;;10.60;99.90;;;;;;5094755;28;20023;-88
2023/03/21 02:04:02;;;;;;;9.00;3.35;;;10.50;99.90;;;;;;5094191;28;20024;-87
2023/03/21 02:06:47;;;;;;;4.28;2.70;;;10.50;99.90;;;;;;5093389;28;20020;-87
2023/03/21 02:09:18;;;;;;;5.40;3.22;;;10.50;99.90;;;;;;5094593;28;20031;-88
2023/03/21 02:11:45;;;;;;;7.32;3.15;;;10.40;99.90;;;;;;5093124;28;20111;-88
2023/03/21 02:14:16;;;;;;;12.73;3.33;;;10.40;99.90;;;;;;5081037;28;20469;-88
2023/03/21 02:17:09;;;;;;;5.07;2.97;;;10.30;99.90;;;;;;5089221;28;20024;-88
2023/03/21 02:19:37;;;;;;;6.43;3.28;;;10.30;99.90;;;;;;5081881;28;20028;-88
2023/03/21 02:22:34;;;;;;;7.55;3.15;;;10.30;99.90;;;;;;5093518;28;20020;-88
2023/03/21 02:25:29;;;;;;;5.68;2.72;;;10.30;99.90;;;;;;5092469;28;20035;-89
2023/03/21 02:28:23;;;;;;;4.55;2.90;;;10.20;99.90;;;;;;5073434;28;20021;-88
2023/03/21 02:31:20;;;;;;;6.57;2.90;;;10.20;99.90;;;;;;5075483;28;20019;-82
2023/03/21 02:34:15;;;;;;;6.82;2.75;;;10.20;99.90;;;;;;5082379;28;20024;-84
2023/03/21 02:37:05;;;;;;;7.80;2.75;;;10.10;99.90;;;;;;5078389;28;20074;-82
2023/03/21 02:39:54;;;;;;;6.75;3.03;;;10.10;99.90;;;;;;5072783;28;20020;-84
2023/03/21 02:42:54;;;;;;;5.95;2.80;;;10.10;99.90;;;;;;5091275;28;20034;-84
2023/03/21 02:45:27;;;;;;;5.18;2.97;;;10.00;99.90;;;;;;5090802;28;20024;-84
2023/03/21 02:48:04;;;;;;;5.82;2.53;;;10.00;99.90;;;;;;5071709;28;20119;-84
2023/03/21 02:50:40;;;;;;;4.93;2.95;;;9.90;99.90;;;;;;5073608;28;20074;-86
2023/03/21 02:53:08;;;;;;;5.38;2.80;;;9.90;99.90;;;;;;5073129;28;20457;-86
2023/03/21 02:55:36;;;;;;;4.90;2.80;;;9.90;99.90;;;;;;5076551;28;20112;-85
2023/03/21 02:58:03;;;;;;;5.28;2.65;;;9.90;99.90;;;;;;5073028;28;20024;-84
2023/03/21 03:00:32;;;;;;;7.63;2.60;;;9.90;99.90;;;;;;5076786;28;20020;-84
2023/03/21 03:02:58;;;;;;;4.45;2.80;;;9.90;99.90;;;;;;5089866;28;20112;-84
2023/03/21 03:05:27;;;;;;;4.38;3.10;;;9.80;99.90;;;;;;5090096;28;20441;-85
2023/03/21 03:08:05;;;;;;;4.30;2.67;;;9.90;99.90;;;;;;5072347;28;20472;-86
2023/03/21 03:10:42;;;;;;;4.53;3.05;;;9.90;99.90;;;;;;5075554;28;20457;-86
2023/03/21 03:13:39;;;;;;;3.75;2.30;;;9.80;99.90;;;;;;5056165;28;20053;-86
2023/03/21 03:16:24;;;;;;;3.90;2.35;;;9.80;99.90;;;;;;5056568;28;20025;-86
2023/03/21 03:18:52;;;;;;;4.35;2.40;;;9.80;99.90;;;;;;5055465;28;20061;-86
2023/03/21 03:21:30;;;;;;;3.65;2.35;;;9.80;99.90;;;;;;5056018;28;20446;-86
2023/03/21 03:24:08;;;;;;;2.85;2.10;;;9.70;99.90;;;;;;5055715;28;20347;-86
2023/03/21 03:26:42;;;;;;;5.32;2.53;;;9.70;99.90;;;;;;5057066;28;20044;-86
2023/03/21 03:29:12;;;;;;;4.20;2.28;;;9.70;99.90;;;;;;5056281;28;20032;-86
2023/03/21 03:31:43;;;;;;;7.10;2.85;;;9.70;99.90;;;;;;5079249;28;20041;-84
2023/03/21 03:34:13;;;;;;;5.20;2.72;;;9.70;99.90;;;;;;5096436;28;20464;-84
2023/03/21 03:36:46;;;;;;;6.60;2.60;;;9.70;99.90;;;;;;5095860;28;20020;-84
2023/03/21 03:39:13;;;;;;;4.57;2.53;;;9.60;99.90;;;;;;5095913;28;20032;-84
2023/03/21 03:41:49;;;;;;;3.83;2.30;;;9.60;99.90;;;;;;5096993;28;20030;-83
2023/03/21 03:44:15;;;;;;;3.60;2.30;;;9.60;99.90;;;;;;5096086;28;20081;-84
2023/03/21 03:46:50;;;;;;;7.22;2.50;;;9.60;99.90;;;;;;5095695;28;20448;-86
2023/03/21 03:49:21;;;;;;;5.15;2.70;;;9.60;99.90;;;;;;5096943;28;20024;-86
2023/03/21 03:52:28;;;;;;;4.85;2.45;;;9.60;99.90;;;;;;5095446;28;20024;-86
2023/03/21 03:54:54;;;;;;;3.10;2.45;;;9.60;99.90;;;;;;5034235;28;20104;-86
2023/03/21 03:57:21;;;;;;;5.40;2.47;;;9.50;99.90;;;;;;5086002;28;20086;-85
2023/03/21 03:59:47;;;;;;;4.85;2.53;;;9.60;99.90;;;;;;5095160;28;20051;-86
2023/03/21 04:02:13;;;;;;;8.23;2.42;;;9.60;99.90;;;;;;5096379;28;20365;-85
2023/03/21 04:04:40;;;;;;;6.38;2.13;;;9.50;99.90;;;;;;5095602;28;20024;-85
2023/03/21 04:07:06;;;;;;;6.15;2.55;;;9.50;99.90;;;;;;5094844;28;20020;-86
2023/03/21 04:09:32;;;;;;;5.82;2.60;;;9.60;99.90;;;;;;5095455;28;20051;-85
2023/03/21 04:11:58;;;;;;;8.10;2.90;;;9.60;99.90;;;;;;5095769;28;20024;-86
2023/03/21 04:14:24;;;;;;;4.70;2.80;;;9.70;99.90;;;;;;5095313;28;20062;-85
2023/03/21 04:16:51;;;;;;;4.60;2.47;;;9.70;99.90;;;;;;5094538;28;20111;-86
2023/03/21 04:19:17;;;;;;;3.83;2.35;;;9.70;99.90;;;;;;5095222;28;20023;-85
2023/03/21 04:21:43;;;;;;;6.18;2.83;;;9.70;99.90;;;;;;5095652;28;20027;-87
2023/03/21 04:24:10;;;;;;;4.53;2.70;;;9.70;99.90;;;;;;5094388;28;20024;-86
2023/03/21 04:26:37;;;;;;;3.53;2.60;;;9.60;99.90;;;;;;5094826;28;20048;-86
2023/03/21 04:29:02;;;;;;;5.40;2.83;;;9.60;99.90;;;;;;5095695;28;20136;-87
2023/03/21 04:31:30;;;;;;;7.68;2.90;;;9.60;99.90;;;;;;5095967;28;20029;-86
2023/03/21 04:34:00;;;;;;;5.63;2.78;;;9.60;99.90;;;;;;5094219;28;20050;-86
2023/03/21 04:36:29;;;;;;;4.13;2.78;;;9.60;99.90;;;;;;5094941;28;20020;-87
2023/03/21 04:38:59;;;;;;;5.00;2.80;;;9.60;99.90;;;;;;5076646;28;20453;-86
2023/03/21 04:41:26;;;;;;;4.88;2.70;;;9.60;99.90;;;;;;5074346;28;20055;-87
2023/03/21 04:43:51;;;;;;;3.88;2.42;;;9.60;99.90;;;;;;5074494;28;20054;-86
2023/03/21 04:46:17;;;;;;;3.95;2.28;;;9.60;99.90;;;;;;5074722;28;20025;-86
2023/03/21 04:48:42;;;;;;;4.20;2.50;;;9.60;99.90;;;;;;5074291;28;20024;-86
2023/03/21 04:51:08;;;;;;;5.32;2.70;;;9.60;99.90;;;;;;5073791;28;20115;-86
2023/03/21 04:53:34;;;;;;;5.30;2.72;;;9.50;99.90;;;;;;5074333;28;20032;-85
2023/03/21 04:55:59;;;;;;;6.20;2.72;;;9.50;99.90;;;;;;5074041;28;20027;-86
2023/03/21 04:58:25;;;;;;;4.03;2.53;;;9.50;99.90;;;;;;5075298;28;20027;-85
2023/03/21 05:00:51;;;;;;;6.20;3.25;;;9.50;99.90;;;;;;5074295;28;20066;-86
2023/03/21 05:03:20;;;;;;;3.55;2.58;;;9.50;99.90;;;;;;5074841;28;20058;-86
2023/03/21 05:05:46;;;;;;;3.55;2.30;;;9.40;99.90;;;;;;5074721;28;20016;-84
2023/03/21 05:08:13;;;;;;;7.35;3.00;;;9.40;99.90;;;;;;5073427;28;20046;-85
2023/03/21 05:10:38;;;;;;;4.50;2.75;;;9.40;99.90;;;;;;5074690;28;20386;-85
2023/03/21 05:13:04;;;;;;;4.35;2.42;;;9.30;99.90;;;;;;5073054;28;20025;-85
2023/03/21 05:15:30;;;;;;;3.88;2.60;;;9.30;99.90;;;;;;5073728;28;20027;-84
2023/03/21 05:17:57;;;;;;;4.35;2.47;;;9.30;99.90;;;;;;5074430;28;20094;-85
2023/03/21 05:20:23;;;;;;;4.65;2.80;;;9.30;99.90;;;;;;5073381;28;20024;-85
2023/03/21 05:22:50;;;;;;;4.10;2.72;;;9.20;99.90;;;;;;5073301;28;20438;-86
2023/03/21 05:25:19;;;;;;;4.28;3.05;;;9.30;99.90;;;;;;5074383;28;20038;-85
2023/03/21 05:27:52;;;;;;;4.43;2.20;;;9.20;99.90;;;;;;5090325;28;20031;-85
2023/03/21 05:30:19;;;;;;;5.85;2.80;;;9.20;99.90;;;;;;5093882;28;20024;-85
2023/03/21 05:32:45;;;;;;;3.72;2.50;;;9.20;99.90;;;;;;5093013;28;20107;-85
2023/03/21 05:35:11;;;;;;;5.05;2.90;;;9.20;99.90;;;;;;5078386;28;20059;-84
2023/03/21 05:37:37;;;;;;;4.60;2.75;;;9.20;99.90;;;;;;5092370;28;20097;-86
2023/03/21 05:40:08;;;;;;;5.03;2.70;;;9.20;99.90;;;;;;5092963;28;20024;-86
2023/03/21 05:42:34;;;;;;;4.88;2.58;;;9.10;99.90;;;;;;5093748;28;20474;-86
2023/03/21 05:44:59;;;;;;;6.63;3.08;;;9.10;99.90;;;;;;5094124;28;20028;-85
2023/03/21 05:47:25;;;;;;;6.63;2.78;;;9.10;99.90;;;;;;5093509;28;20555;-86
2023/03/21 05:49:51;;;;;;;5.28;2.63;;;9.20;99.90;;;;;;5094355;28;20051;-88
2023/03/21 05:52:17;;;;;;;6.35;2.60;;;9.20;99.90;;;;;;5094830;28;20076;-85
2023/03/21 05:54:43;;;;;;;3.35;2.40;;;9.20;99.90;;;;;;5090440;28;20687;-89
2023/03/21 05:57:08;;;;;;;4.63;2.80;;;9.20;99.90;;;;;;5087956;28;20509;-86
2023/03/21 05:59:34;;;;;;;4.50;2.60;;;9.30;99.90;;;;;;5083346;28;20079;-85
2023/03/21 06:02:00;;;;;;;4.50;2.60;;;9.20;99.90;;;;;;5087897;28;20016;-85
2023/03/21 06:04:25;;;;;;;6.97;2.70;;;9.20;99.90;;;;;;5085509;28;20028;-84
2023/03/21 06:06:52;;;;;;;4.88;2.60;;;9.20;99.90;;;;;;5093088;28;20067;-88
2023/03/21 06:09:19;;;;;;;4.82;2.83;;;9.20;99.90;;;;;;5090796;28;20027;-86
2023/03/21 06:11:51;;;;;;;5.95;3.13;;;9.20;99.90;;;;;;5094346;28;20016;-86
2023/03/21 06:14:17;;;;;;;;;;;9.20;99.90;;;;;;5094689;28;20035;-85
2023/03/21 06:16:43;;;;;;;6.15;2.90;;;9.30;99.90;;;;;;5093153;28;20247;-86
2023/03/21 06:19:09;;;;;;;3.92;2.47;;;9.30;99.90;;;;;;5093837;28;20499;-86
2023/03/21 06:21:34;;;;;;;5.35;2.70;;;9.30;99.90;;;;;;5093251;28;20051;-85
2023/03/21 06:24:00;;;;;;;5.30;3.03;;;9.30;99.90;;;;;;5093050;28;20020;-86
2023/03/21 06:26:26;;;;;;;5.80;2.53;;;9.30;99.90;;;;;;5093282;28;20020;-86
2023/03/21 06:28:52;;;;;;;13.05;4.68;;;9.30;99.90;;;;;;5094052;28;20031;-90
2023/03/21 06:31:21;;;;;;;10.25;2.97;;;9.40;99.90;;;;;;5093298;28;20028;-85
2023/03/21 06:33:48;;;;;;;7.70;3.03;;;9.50;99.90;;;;;;5092703;28;20032;-85
2023/03/21 06:36:13;;;;;;;9.70;3.25;;;9.50;99.90;;;;;;5092157;28;20036;-85
2023/03/21 06:38:39;;;;;;;5.95;2.58;;;9.50;99.90;;;;;;5092556;28;20153;-85
2023/03/21 06:41:06;;;;;;;4.70;2.83;;;9.40;99.90;;;;;;5092360;28;20020;-86
2023/03/21 06:43:32;;;;;;;5.97;2.50;;;9.50;99.90;;;;;;5094553;28;20059;-86
2023/03/21 06:45:58;;;;;;;5.45;2.33;;;9.50;99.90;;;;;;5096386;28;20028;-85
2023/03/21 06:48:24;;;;;;;5.68;2.65;;;9.60;99.90;;;;;;5096719;28;20073;-84
2023/03/21 06:50:51;;;;;;;5.20;2.78;;;9.50;99.90;;;;;;5096643;28;20020;-83
2023/03/21 06:53:19;;;;;;;5.57;2.80;;;9.50;99.90;;;;;;5095649;28;20020;-84
2023/03/21 06:55:55;;;;;;;6.32;2.65;;;9.60;99.90;;;;;;5097509;28;20012;-84
2023/03/21 06:58:21;;;;;;;8.40;2.50;;;9.60;99.90;;;;;;5096749;28;20020;-84
2023/03/21 07:00:47;;;;;;;5.97;3.30;;;9.60;99.90;;;;;;5091655;28;20446;-85
2023/03/21 07:03:13;;;;;;;8.35;3.40;;;9.60;99.90;;;;;;5076603;28;20029;-84
2023/03/21 07:05:39;;;;;;;6.30;3.20;;;9.60;99.90;;;;;;5076188;28;20078;-84
2023/03/21 07:08:09;;;;;;;5.80;3.47;;;9.70;99.90;;;;;;5075593;28;20403;-85
2023/03/21 07:10:38;;;;;;;5.97;3.50;;;9.70;99.90;;;;;;5076165;28;20115;-85
2023/03/21 07:13:03;;;;;;;7.93;3.50;;;9.70;99.90;;;;;;5075727;28;20025;-85
2023/03/21 07:15:29;;;;;;;8.40;3.58;;;9.80;99.90;;;;;;5076902;28;20032;-85
2023/03/21 07:17:54;;;;;;;8.07;3.60;;;9.80;99.90;;;;;;5075700;28;20032;-89
2023/03/21 07:20:20;;;;;;;5.40;3.33;;;9.90;99.90;;;;;;5076471;28;20025;-84
2023/03/21 07:22:46;;;;;;;4.75;2.72;;;10.00;99.90;;;;;;5075524;28;20019;-84
2023/03/21 07:25:11;;;;;;;5.82;3.40;;;10.00;99.90;;;;;;5075225;28;20362;-85
2023/03/21 07:27:37;;;;;;;4.22;2.90;;;10.10;99.90;;;;;;5075822;28;20066;-84
2023/03/21 07:30:04;;;;;;;4.57;2.60;;;10.10;99.90;;;;;;5075222;28;20020;-84
2023/03/21 07:32:33;;;;;;;5.43;2.85;;;10.30;99.90;;;;;;5084774;28;20028;-86
2023/03/21 07:34:59;;;;;;;5.32;2.80;;;10.30;99.90;;;;;;5090552;28;20039;-85
2023/03/21 07:37:25;;;;;;;3.78;2.60;;;10.40;99.90;;;;;;5075626;28;20041;-85
2023/03/21 07:39:51;;;;;;;4.05;2.55;;;10.40;99.90;;;;;;5075407;28;20032;-85
2023/03/21 07:42:17;;;;;;;6.03;2.58;;;10.60;99.90;;;;;;5092890;28;20032;-85
2023/03/21 07:44:43;;;;;;;7.78;3.30;;;10.60;99.90;;;;;;5095346;28;20024;-83
2023/03/21 07:47:09;;;;;;;6.63;3.38;;;10.60;99.90;;;;;;5094447;28;20077;-87
2023/03/21 07:49:36;;;;;;;5.50;2.95;;;10.70;99.90;;;;;;5095553;28;20016;-87
2023/03/21 07:52:01;;;;;;;3.85;2.45;;;10.70;99.90;;;;;;5092659;28;20026;-87
2023/03/21 07:54:27;;;;;;;3.85;2.42;;;10.70;99.90;;;;;;5094953;28;20372;-86
2023/03/21 07:56:54;;;;;;;4.53;2.05;;;10.80;99.90;;;;;;5086663;28;20024;-85
2023/03/21 07:59:20;;;;;;;3.35;2.60;;;10.80;99.90;;;;;;5094729;28;20016;-85
2023/03/21 08:01:45;;;;;;;7.00;2.60;;;10.80;99.90;;;;;;5094506;28;20045;-84
2023/03/21 08:04:11;;;;;;;7.13;2.80;;;10.90;99.90;;;;;;5094470;28;20020;-85
2023/03/21 08:06:37;;;;;;;3.78;2.50;;;10.90;99.90;;;;;;5081621;28;20370;-85
2023/03/21 08:09:03;;;;;;;4.20;2.38;;;11.00;99.90;;;;;;5074065;28;20066;-85
2023/03/21 08:11:31;;;;;;;6.22;2.58;;;11.10;99.90;;;;;;5075185;28;20023;-84
2023/03/21 08:13:58;;;;;;;6.70;2.63;;;11.10;99.90;;;;;;5071763;28;20047;-85
2023/03/21 08:16:24;;;;;;;5.95;2.60;;;11.20;99.90;;;;;;5083321;28;20103;-85
2023/03/21 08:18:50;;;;;;;4.50;2.85;;;11.20;99.90;;;;;;5077720;28;20044;-85
2023/03/21 08:21:15;;;;;;;7.18;3.20;;;11.30;99.90;;;;;;5080755;28;20020;-85
2023/03/21 08:23:41;;;;;;;4.10;2.70;;;11.30;99.90;;;;;;5083088;28;20027;-84
2023/03/21 08:26:08;;;;;;;6.32;2.40;;;11.40;99.90;;;;;;5081386;28;20031;-85
2023/03/21 08:28:35;;;;;;;7.05;2.28;;;11.40;99.90;;;;;;5090574;28;20029;-85
2023/03/21 08:31:07;;;;;;;4.55;2.20;;;11.40;99.90;;;;;;5061808;28;20055;-85
2023/03/21 08:33:32;;;;;;;5.55;2.13;;;11.40;99.90;;;;;;5074137;28;20043;-85
2023/03/21 08:35:59;;;;;;;4.13;2.38;;;11.40;99.90;;;;;;5085101;28;20028;-84
2023/03/21 08:38:28;;;;;;;3.60;2.22;;;11.50;99.90;;;;;;5086726;28;20445;-84
2023/03/21 08:40:59;;;;;;;3.47;2.20;;;11.60;99.90;;;;;;5087925;28;20434;-86
2023/03/21 08:43:25;;;;;;;4.78;2.10;;;11.70;99.90;;;;;;5089304;28;20016;-87
2023/03/21 08:45:51;;;;;;;7.55;2.00;;;11.80;99.90;;;;;;5077463;28;20051;-87
2023/03/21 08:48:17;;;;;;;8.60;2.50;;;11.80;99.90;;;;;;5077129;28;20021;-85
2023/03/21 08:50:43;;;;;;;10.55;2.65;;;11.90;99.90;;;;;;5089318;28;20035;-87
2023/03/21 08:53:12;;;;;;;7.50;2.63;;;11.90;99.90;;;;;;5082054;28;20441;-89
2023/03/21 08:55:37;;;;;;;7.07;2.50;;;11.90;99.90;;;;;;5086873;28;20027;-84
2023/03/21 08:58:04;;;;;;;6.22;2.60;;;12.10;99.90;;;;;;5085437;28;20020;-83
2023/03/21 09:00:30;;;;;;;6.65;2.00;;;12.10;99.90;;;;;;5078025;28;20046;-81
2023/03/21 09:02:57;;;;;;;6.35;2.60;;;12.20;99.90;;;;;;5081288;28;20042;-87
2023/03/21 09:05:25;;;;;;;4.95;1.88;;;12.10;99.90;;;;;;5074410;28;20070;-86
2023/03/21 09:07:51;;;;;;;3.85;2.30;;;12.30;99.90;;;;;;5078367;28;20020;-84
2023/03/21 09:10:20;;;;;;;6.38;2.28;;;12.30;99.90;;;;;;5085494;28;20074;-83
2023/03/21 09:12:46;;;;;;;5.47;2.30;;;12.30;99.90;;;;;;5080459;28;20019;-85
2023/03/21 09:15:12;;;;;;;3.83;2.15;;;12.40;99.90;;;;;;5082756;28;20032;-85
2023/03/21 09:17:42;;;;;;;3.15;2.20;;;12.50;99.90;;;;;;5088011;28;20078;-86
2023/03/21 09:20:17;;;;;;;4.97;2.38;;;12.60;99.90;;;;;;5089911;28;20063;-85
2023/03/21 09:22:50;;;;;;;5.75;2.67;;;12.60;99.90;;;;;;5086770;28;20031;-89
2023/03/21 09:25:18;;;;;;;6.68;3.83;;;12.70;99.90;;;;;;5078305;28;20033;-87
2023/03/21 09:27:47;;;;;;;6.90;4.43;;;12.70;99.90;;;;;;5078265;28;20032;-84
2023/03/21 09:30:15;;;;;;;10.82;3.90;;;12.70;99.90;;;;;;5088323;28;20079;-84
2023/03/21 09:32:41;;;;;;;5.60;2.50;;;12.70;99.90;;;;;;5083853;28;20016;-83
2023/03/21 09:35:10;;;;;;;2.72;1.75;;;12.70;99.90;;;;;;5072369;28;20035;-83
2023/03/21 09:37:37;;;;;;;3.83;2.20;;;12.80;99.90;;;;;;5078161;28;20048;-82
2023/03/21 09:40:06;;;;;;;3.20;2.10;;;12.90;99.90;;;;;;5079253;28;20116;-83
2023/03/21 09:42:36;;;;;;;3.13;1.90;;;12.90;99.90;;;;;;5081755;28;20101;-83
2023/03/21 09:45:35;;;;;;;4.57;2.17;;;13.00;99.90;;;;;;5108656;27;20024;-80
2023/03/21 09:48:01;;;;;;;3.22;2.20;;;12.90;99.90;;;;;;5083364;28;20069;-78
2023/03/21 09:50:33;;;;;;;3.42;2.05;;;13.00;99.90;;;;;;5083460;28;20021;-79
2023/03/21 09:53:16;;;;;;;3.00;2.00;;;12.90;99.90;;;;;;5077757;28;20017;-79
2023/03/21 09:55:43;;;;;;;3.67;2.30;;;12.90;99.90;;;;;;5077272;28;20028;-79
2023/03/21 09:58:51;;;;;;;3.63;2.60;;;13.00;99.90;;;;;;5086546;28;20074;-82
2023/03/21 10:01:26;;;;;;;5.85;2.63;;;13.10;99.90;;;;;;5055020;28;20459;-79
2023/03/21 10:03:55;;;;;;;4.75;2.30;;;13.10;99.90;;;;;;5080000;28;20036;-82
2023/03/21 10:06:27;;;;;;;5.75;2.72;;;13.00;99.90;;;;;;5081765;28;20021;-82
2023/03/21 10:09:00;;;;;;;4.00;2.00;;;13.10;99.90;;;;;;5081538;28;20401;-82
2023/03/21 10:11:34;;;;;;;2.70;1.73;;;13.10;99.90;;;;;;5078801;28;20086;-81
2023/03/21 10:14:17;;;;;;;2.75;1.75;;;13.10;99.90;;;;;;5085098;28;20064;-81
2023/03/21 10:16:47;;;;;;;4.63;2.00;;;13.20;99.90;;;;;;5083586;28;20049;-86
2023/03/21 10:19:16;;;;;;;4.45;2.00;;;13.20;99.90;;;;;;5079735;28;20052;-85
2023/03/21 10:21:45;;;;;;;4.55;1.98;;;13.10;99.90;;;;;;5084822;28;20020;-85
2023/03/21 10:24:23;;;;;;;3.17;1.80;;;13.20;99.90;;;;;;5082467;28;20020;-85
2023/03/21 10:26:51;;;;;;;4.82;1.98;;;13.20;99.90;;;;;;5092834;28;20036;-84
2023/03/21 10:29:21;;;;;;;3.33;2.08;;;13.10;99.90;;;;;;5081298;28;20396;-85
2023/03/21 10:31:49;;;;;;;3.35;2.00;;;13.10;99.90;;;;;;5087152;28;20081;-85
2023/03/21 10:34:22;;;;;;;4.28;1.95;;;13.10;99.90;;;;;;5090473;28;20108;-85
2023/03/21 10:36:48;;;;;;;4.03;1.77;;;13.20;99.90;;;;;;5079338;28;20024;-84
2023/03/21 10:39:31;;;;;;;3.40;1.98;;;13.20;99.90;;;;;;5090529;28;20073;-85
2023/03/21 10:41:56;;;;;;;4.13;1.55;;;13.30;99.90;;;;;;5087034;28;20441;-85
2023/03/21 10:44:31;;;;;;;4.13;1.80;;;13.40;99.90;;;;;;5088033;28;20039;-85
2023/03/21 10:47:06;;;;;;;4.05;1.67;;;13.40;99.90;;;;;;5093651;28;20023;-85
2023/03/21 10:49:32;;;;;;;2.15;1.38;;;13.50;99.90;;;;;;5083560;28;20369;-85
2023/03/21 10:52:01;;;;;;;1.70;1.20;;;13.60;99.90;;;;;;5084427;28;20025;-85
2023/03/21 10:54:32;;;;;;;1.70;1.30;;;13.60;99.90;;;;;;5091246;28;20461;-85
2023/03/21 10:57:01;;;;;;;1.65;1.35;;;13.60;99.90;;;;;;5079160;28;20028;-85
2023/03/21 10:59:34;;;;;;;4.82;1.98;;;13.60;99.90;;;;;;5088757;28;20066;-85
2023/03/21 11:02:03;;;;;;;3.55;1.60;;;13.60;99.90;;;;;;5087600;28;20072;-84
2023/03/21 11:04:29;;;;;;;2.33;1.55;;;13.60;99.90;;;;;;5079814;28;20025;-84
2023/03/21 11:06:58;;;;;;;3.67;1.90;;;13.60;99.90;;;;;;5092562;28;20035;-85
2023/03/21 11:09:26;;;;;;;3.90;2.03;;;13.70;99.90;;;;;;5074675;28;20024;-85
2023/03/21 11:12:08;;;;;;;2.42;1.60;;;13.70;99.90;;;;;;5077603;28;20469;-85
2023/03/21 11:14:43;;;;;;;1.98;1.70;;;13.80;99.90;;;;;;5087784;28;20079;-85
2023/03/21 11:17:23;;;;;;;3.70;1.70;;;13.80;99.90;;;;;;5064419;28;20052;-85
2023/03/21 11:20:04;;;;;;;2.30;1.80;;;13.80;99.90;;;;;;5085377;28;20432;-85
2023/03/21 11:22:41;;;;;;;2.45;1.90;;;14.10;99.90;;;;;;5090993;28;20016;-85
2023/03/21 11:25:28;;;;;;;4.35;2.05;;;14.10;99.90;;;;;;5060225;28;20503;-85
2023/03/21 11:27:54;;;;;;;2.78;1.80;;;14.30;99.90;;;;;;5079899;28;20034;-85
2023/03/21 11:30:25;;;;;;;2.65;1.77;;;14.50;99.90;;;;;;5080861;28;20099;-85
2023/03/21 11:32:54;;;;;;;2.72;1.75;;;14.60;99.90;;;;;;5092142;28;20024;-85
2023/03/21 11:35:24;;;;;;;5.07;2.00;;;14.60;99.90;;;;;;5081075;28;20461;-85
2023/03/21 11:37:52;;;;;;;3.20;1.95;;;14.60;99.90;;;;;;5084876;28;20044;-85
2023/03/21 11:40:20;;;;;;;3.63;1.60;;;14.80;99.90;;;;;;5089006;28;20024;-84
2023/03/21 11:42:54;;;;;;;4.10;1.88;;;14.80;99.90;;;;;;5078789;28;20154;-84
2023/03/21 11:45:26;;;;;;;2.00;1.70;;;14.80;99.90;;;;;;5078161;28;20419;-85
2023/03/21 11:47:55;;;;;;;3.60;2.30;;;14.90;99.90;;;;;;5085366;28;20059;-84
2023/03/21 11:50:39;;;;;;;5.97;3.53;;;14.90;99.90;;;;;;5080167;28;20031;-85
2023/03/21 11:53:18;;;;;;;4.25;1.98;;;15.10;99.90;;;;;;5062779;28;20020;-85
2023/03/21 11:56:02;;;;;;;2.58;1.70;;;15.10;99.90;;;;;;5086305;28;20129;-85
2023/03/21 11:58:39;;;;;;;4.03;1.60;;;15.10;99.90;;;;;;5074883;28;20024;-85
2023/03/21 12:01:15;;;;;;;3.92;1.98;;;15.20;99.90;;;;;;5069981;28;20028;-85
2023/03/21 12:04:06;;;;;;;3.08;1.42;;;15.20;99.90;;;;;;5085653;28;20050;-84
2023/03/21 12:06:53;;;;;;;4.40;2.13;;;15.20;99.60;;;;;;5090949;28;20031;-85
2023/03/21 12:09:33;;;;;;;3.33;1.65;;;15.30;98.80;;;;;;5063650;28;20048;-86
2023/03/21 12:12:32;;;;;;;3.30;1.45;;;15.30;98.70;;;;;;5087636;28;20020;-86
2023/03/21 12:15:16;;;;;;;2.80;1.92;;;15.40;99.30;;;;;;5080146;28;20035;-86
2023/03/21 12:18:24;;;;;;;5.15;2.00;;;15.60;99.10;;;;;;5085220;28;20382;-86
2023/03/21 12:20:57;;;;;;;3.47;1.63;;;15.80;98.00;;;;;;5070715;28;20051;-86
2023/03/21 12:23:25;;;;;;;3.22;2.10;;;15.90;98.20;;;;;;5087415;28;20028;-86
2023/03/21 12:26:28;;;;;;;1.70;1.50;;;16.10;97.40;;;;;;5078671;28;20032;-86
2023/03/21 12:29:18;;;;;;;4.88;1.95;;;16.10;96.90;;;;;;5069059;28;20042;-84
2023/03/21 12:32:16;;;;;;;2.65;1.48;;;16.10;96.50;;;;;;5085340;28;20072;-86
2023/03/21 12:34:47;;;;;;;2.50;1.25;;;16.20;96.10;;;;;;5092490;28;20024;-86
2023/03/21 12:37:24;;;;;;;1.83;1.40;;;16.20;94.70;;;;;;5089280;28;20044;-85
2023/03/21 12:39:58;;;;;;;1.83;1.08;;;16.00;94.80;;;;;;5077635;28;20085;-84
2023/03/21 12:42:42;;;;;;;1.58;1.25;;;16.10;95.10;;;;;;5089706;28;20056;-84
2023/03/21 12:45:14;;;;;;;1.63;1.40;;;16.10;93.90;;;;;;5065519;28;20028;-80
2023/03/21 12:47:50;;;;;;;2.40;0.90;;;15.90;93.90;;;;;;5085813;28;20123;-83
2023/03/21 12:50:26;;;;;;;2.13;0.93;;;15.90;94.80;;;;;;5076949;28;20024;-82
2023/03/21 12:52:58;;;;;;;2.90;1.20;;;16.00;93.80;;;;;;5082919;28;20020;-81
2023/03/21 12:55:32;;;;;;;3.25;1.38;;;16.30;93.90;;;;;;5084913;28;20105;-82
2023/03/21 12:58:03;;;;;;;1.75;0.93;;;16.50;91.80;;;;;;5076147;28;20024;-82
2023/03/21 13:00:52;;;;;;;1.17;1.08;;;16.60;91.10;;;;;;5076770;28;20032;-81
2023/03/21 13:03:23;;;;;;;2.58;1.00;;;16.50;90.60;;;;;;5080123;28;20020;-81
2023/03/21 13:06:01;;;;;;;3.03;1.00;;;16.70;90.30;;;;;;5083920;28;20020;-81
2023/03/21 13:08:38;;;;;;;2.15;1.17;;;16.90;89.10;;;;;;5072934;28;20028;-80